sensor_id;sensor_type;location;lat;lon;timestamp;P1;durP1;ratioP1;P2;durP2;ratioP2
67272;SDS011;54190;49.770;9.250;2022-12-18T00:00:46;26.67;;;16.00;;
67272;SDS011;54190;49.770;9.250;2022-12-18T00:03:13;26.57;;;16.07;;
67272;SDS011;54190;49.770;9.250;2022-12-18T00:05:47;28.13;;;18.27;;
67272;SDS011;54190;49.770;9.250;2022-12-18T00:08:16;27.00;;;16.37;;
67272;SDS011;54190;49.770;9.250;2022-12-18T00:10:43;29.70;;;16.90;;
67272;SDS011;54190;49.770;9.250;2022-12-18T00:13:10;26.37;;;16.00;;
67272;SDS011;54190;49.770;9.250;2022-12-18T00:15:36;25.73;;;15.10;;
67272;SDS011;54190;49.770;9.250;2022-12-18T00:18:03;27.40;;;15.57;;
67272;SDS011;54190;49.770;9.250;2022-12-18T00:20:28;25.60;;;15.63;;
67272;SDS011;54190;49.770;9.250;2022-12-18T00:22:55;24.57;;;15.40;;
67272;SDS011;54190;49.770;9.250;2022-12-18T00:25:20;24.93;;;14.60;;
67272;SDS011;54190;49.770;9.250;2022-12-18T00:27:47;25.93;;;16.77;;
67272;SDS011;54190;49.770;9.250;2022-12-18T00:30:13;24.83;;;15.77;;
67272;SDS011;54190;49.770;9.250;2022-12-18T00:32:39;31.57;;;16.73;;
67272;SDS011;54190;49.770;9.250;2022-12-18T00:35:05;25.77;;;15.73;;
67272;SDS011;54190;49.770;9.250;2022-12-18T00:37:33;26.87;;;15.77;;
67272;SDS011;54190;49.770;9.250;2022-12-18T00:39:59;24.83;;;14.83;;
67272;SDS011;54190;49.770;9.250;2022-12-18T00:42:25;24.37;;;14.97;;
67272;SDS011;54190;49.770;9.250;2022-12-18T00:45:09;25.40;;;15.60;;
67272;SDS011;54190;49.770;9.250;2022-12-18T00:47:34;25.07;;;15.37;;
67272;SDS011;54190;49.770;9.250;2022-12-18T00:50:00;26.17;;;15.67;;
67272;SDS011;54190;49.770;9.250;2022-12-18T00:52:26;28.97;;;16.63;;
67272;SDS011;54190;49.770;9.250;2022-12-18T00:54:52;25.60;;;16.07;;
67272;SDS011;54190;49.770;9.250;2022-12-18T00:57:17;27.80;;;16.73;;
67272;SDS011;54190;49.770;9.250;2022-12-18T00:59:43;29.13;;;14.67;;
67272;SDS011;54190;49.770;9.250;2022-12-18T01:02:09;29.90;;;15.97;;
67272;SDS011;54190;49.770;9.250;2022-12-18T01:04:35;24.70;;;15.40;;
67272;SDS011;54190;49.770;9.250;2022-12-18T01:07:01;24.87;;;15.43;;
67272;SDS011;54190;49.770;9.250;2022-12-18T01:09:27;29.90;;;15.60;;
67272;SDS011;54190;49.770;9.250;2022-12-18T01:11:53;26.93;;;16.60;;
67272;SDS011;54190;49.770;9.250;2022-12-18T01:14:18;27.90;;;16.37;;
67272;SDS011;54190;49.770;9.250;2022-12-18T01:16:44;26.40;;;15.73;;
67272;SDS011;54190;49.770;9.250;2022-12-18T01:19:09;28.30;;;15.83;;
67272;SDS011;54190;49.770;9.250;2022-12-18T01:21:35;28.53;;;15.60;;
67272;SDS011;54190;49.770;9.250;2022-12-18T01:24:03;25.83;;;16.20;;
67272;SDS011;54190;49.770;9.250;2022-12-18T01:26:29;30.13;;;16.07;;
67272;SDS011;54190;49.770;9.250;2022-12-18T01:28:55;31.53;;;17.07;;
67272;SDS011;54190;49.770;9.250;2022-12-18T01:31:23;25.57;;;16.23;;
67272;SDS011;54190;49.770;9.250;2022-12-18T01:33:53;29.53;;;16.37;;
67272;SDS011;54190;49.770;9.250;2022-12-18T01:36:21;27.53;;;16.80;;
67272;SDS011;54190;49.770;9.250;2022-12-18T01:38:49;22.90;;;14.90;;
67272;SDS011;54190;49.770;9.250;2022-12-18T01:41:19;28.07;;;16.83;;
67272;SDS011;54190;49.770;9.250;2022-12-18T01:43:55;28.90;;;18.33;;
67272;SDS011;54190;49.770;9.250;2022-12-18T01:46:22;28.43;;;16.37;;
67272;SDS011;54190;49.770;9.250;2022-12-18T01:48:50;35.43;;;18.13;;
67272;SDS011;54190;49.770;9.250;2022-12-18T01:51:20;27.43;;;16.67;;
67272;SDS011;54190;49.770;9.250;2022-12-18T01:53:46;28.00;;;15.80;;
67272;SDS011;54190;49.770;9.250;2022-12-18T01:56:14;29.43;;;16.87;;
67272;SDS011;54190;49.770;9.250;2022-12-18T01:58:54;27.67;;;16.67;;
67272;SDS011;54190;49.770;9.250;2022-12-18T02:01:26;26.70;;;15.37;;
67272;SDS011;54190;49.770;9.250;2022-12-18T02:03:52;26.53;;;17.00;;
67272;SDS011;54190;49.770;9.250;2022-12-18T02:06:29;31.17;;;18.20;;
67272;SDS011;54190;49.770;9.250;2022-12-18T02:11:43;30.13;;;17.97;;
67272;SDS011;54190;49.770;9.250;2022-12-18T02:17:16;26.13;;;17.10;;
67272;SDS011;54190;49.770;9.250;2022-12-18T02:19:47;27.13;;;16.30;;
67272;SDS011;54190;49.770;9.250;2022-12-18T02:28:17;34.40;;;18.17;;
67272;SDS011;54190;49.770;9.250;2022-12-18T02:30:46;28.67;;;17.43;;
67272;SDS011;54190;49.770;9.250;2022-12-18T02:33:14;30.37;;;18.43;;
67272;SDS011;54190;49.770;9.250;2022-12-18T02:35:41;28.57;;;17.00;;
67272;SDS011;54190;49.770;9.250;2022-12-18T02:38:10;33.10;;;18.43;;
67272;SDS011;54190;49.770;9.250;2022-12-18T02:40:38;27.40;;;16.77;;
67272;SDS011;54190;49.770;9.250;2022-12-18T02:43:08;29.07;;;17.30;;
67272;SDS011;54190;49.770;9.250;2022-12-18T02:45:45;30.77;;;17.60;;
67272;SDS011;54190;49.770;9.250;2022-12-18T02:48:13;31.73;;;18.20;;
67272;SDS011;54190;49.770;9.250;2022-12-18T02:50:44;32.23;;;18.40;;
67272;SDS011;54190;49.770;9.250;2022-12-18T02:53:24;26.37;;;16.40;;
67272;SDS011;54190;49.770;9.250;2022-12-18T02:56:15;28.37;;;18.00;;
67272;SDS011;54190;49.770;9.250;2022-12-18T02:58:49;29.80;;;17.20;;
67272;SDS011;54190;49.770;9.250;2022-12-18T03:06:59;28.40;;;17.30;;
67272;SDS011;54190;49.770;9.250;2022-12-18T03:09:31;33.10;;;18.13;;
67272;SDS011;54190;49.770;9.250;2022-12-18T03:12:02;31.73;;;17.53;;
67272;SDS011;54190;49.770;9.250;2022-12-18T03:14:48;31.80;;;18.43;;
67272;SDS011;54190;49.770;9.250;2022-12-18T03:17:34;33.27;;;18.07;;
67272;SDS011;54190;49.770;9.250;2022-12-18T03:20:15;35.83;;;19.50;;
67272;SDS011;54190;49.770;9.250;2022-12-18T03:22:44;29.33;;;17.80;;
67272;SDS011;54190;49.770;9.250;2022-12-18T03:25:14;31.03;;;17.73;;
67272;SDS011;54190;49.770;9.250;2022-12-18T03:27:44;30.33;;;17.60;;
67272;SDS011;54190;49.770;9.250;2022-12-18T03:30:15;32.67;;;19.00;;
67272;SDS011;54190;49.770;9.250;2022-12-18T03:35:13;31.93;;;17.77;;
67272;SDS011;54190;49.770;9.250;2022-12-18T03:37:42;32.90;;;18.43;;
67272;SDS011;54190;49.770;9.250;2022-12-18T03:40:07;29.50;;;16.90;;
67272;SDS011;54190;49.770;9.250;2022-12-18T03:45:20;28.63;;;17.60;;
67272;SDS011;54190;49.770;9.250;2022-12-18T03:55:46;31.87;;;17.90;;
67272;SDS011;54190;49.770;9.250;2022-12-18T03:58:14;31.33;;;17.97;;
67272;SDS011;54190;49.770;9.250;2022-12-18T04:00:54;29.60;;;17.27;;
67272;SDS011;54190;49.770;9.250;2022-12-18T04:03:25;33.27;;;18.77;;
67272;SDS011;54190;49.770;9.250;2022-12-18T04:05:52;31.50;;;18.30;;
67272;SDS011;54190;49.770;9.250;2022-12-18T04:08:21;28.90;;;17.83;;
67272;SDS011;54190;49.770;9.250;2022-12-18T04:10:58;33.07;;;17.93;;
67272;SDS011;54190;49.770;9.250;2022-12-18T04:13:28;32.13;;;18.80;;
67272;SDS011;54190;49.770;9.250;2022-12-18T04:15:59;29.57;;;18.10;;
67272;SDS011;54190;49.770;9.250;2022-12-18T04:18:26;35.40;;;19.70;;
67272;SDS011;54190;49.770;9.250;2022-12-18T04:20:53;31.73;;;19.80;;
67272;SDS011;54190;49.770;9.250;2022-12-18T04:23:18;33.40;;;19.07;;
67272;SDS011;54190;49.770;9.250;2022-12-18T04:25:45;33.93;;;20.37;;
67272;SDS011;54190;49.770;9.250;2022-12-18T04:28:16;29.80;;;17.57;;
67272;SDS011;54190;49.770;9.250;2022-12-18T04:30:42;33.80;;;20.20;;
67272;SDS011;54190;49.770;9.250;2022-12-18T04:33:09;32.33;;;19.73;;
67272;SDS011;54190;49.770;9.250;2022-12-18T04:35:37;30.90;;;18.00;;
67272;SDS011;54190;49.770;9.250;2022-12-18T04:38:03;33.13;;;19.40;;
67272;SDS011;54190;49.770;9.250;2022-12-18T04:40:30;32.83;;;18.70;;
67272;SDS011;54190;49.770;9.250;2022-12-18T04:42:56;31.47;;;19.87;;
67272;SDS011;54190;49.770;9.250;2022-12-18T04:45:21;31.73;;;19.63;;
67272;SDS011;54190;49.770;9.250;2022-12-18T04:47:47;33.13;;;18.77;;
67272;SDS011;54190;49.770;9.250;2022-12-18T04:50:13;29.37;;;17.83;;
67272;SDS011;54190;49.770;9.250;2022-12-18T04:52:38;32.90;;;19.17;;
67272;SDS011;54190;49.770;9.250;2022-12-18T04:55:04;31.10;;;18.20;;
67272;SDS011;54190;49.770;9.250;2022-12-18T04:57:30;34.43;;;18.87;;
67272;SDS011;54190;49.770;9.250;2022-12-18T04:59:56;32.40;;;19.40;;
67272;SDS011;54190;49.770;9.250;2022-12-18T05:02:21;31.70;;;18.60;;
67272;SDS011;54190;49.770;9.250;2022-12-18T05:04:47;31.37;;;18.90;;
67272;SDS011;54190;49.770;9.250;2022-12-18T05:07:12;32.13;;;18.00;;
67272;SDS011;54190;49.770;9.250;2022-12-18T05:09:38;32.10;;;17.83;;
67272;SDS011;54190;49.770;9.250;2022-12-18T05:12:04;32.40;;;18.20;;
67272;SDS011;54190;49.770;9.250;2022-12-18T05:14:30;31.57;;;19.27;;
67272;SDS011;54190;49.770;9.250;2022-12-18T05:16:55;31.30;;;18.60;;
67272;SDS011;54190;49.770;9.250;2022-12-18T05:19:21;36.93;;;19.60;;
67272;SDS011;54190;49.770;9.250;2022-12-18T05:21:47;33.30;;;19.20;;
67272;SDS011;54190;49.770;9.250;2022-12-18T05:24:13;34.17;;;19.60;;
67272;SDS011;54190;49.770;9.250;2022-12-18T05:26:38;32.17;;;18.27;;
67272;SDS011;54190;49.770;9.250;2022-12-18T05:29:04;35.00;;;19.07;;
67272;SDS011;54190;49.770;9.250;2022-12-18T05:31:30;33.43;;;18.27;;
67272;SDS011;54190;49.770;9.250;2022-12-18T05:33:55;31.23;;;17.20;;
67272;SDS011;54190;49.770;9.250;2022-12-18T05:36:21;32.57;;;18.40;;
67272;SDS011;54190;49.770;9.250;2022-12-18T05:38:46;35.90;;;18.80;;
67272;SDS011;54190;49.770;9.250;2022-12-18T05:41:12;31.97;;;17.50;;
67272;SDS011;54190;49.770;9.250;2022-12-18T05:43:38;34.37;;;19.53;;
67272;SDS011;54190;49.770;9.250;2022-12-18T05:46:05;35.47;;;19.73;;
67272;SDS011;54190;49.770;9.250;2022-12-18T05:48:32;33.83;;;19.77;;
67272;SDS011;54190;49.770;9.250;2022-12-18T05:51:21;35.10;;;19.03;;
67272;SDS011;54190;49.770;9.250;2022-12-18T05:53:46;31.77;;;18.60;;
67272;SDS011;54190;49.770;9.250;2022-12-18T05:56:16;35.77;;;20.57;;
67272;SDS011;54190;49.770;9.250;2022-12-18T05:58:44;34.23;;;20.00;;
67272;SDS011;54190;49.770;9.250;2022-12-18T06:01:15;34.00;;;18.63;;
67272;SDS011;54190;49.770;9.250;2022-12-18T06:03:43;34.37;;;18.67;;
67272;SDS011;54190;49.770;9.250;2022-12-18T06:06:12;34.70;;;19.97;;
67272;SDS011;54190;49.770;9.250;2022-12-18T06:08:43;33.40;;;19.80;;
67272;SDS011;54190;49.770;9.250;2022-12-18T06:11:09;37.23;;;20.07;;
67272;SDS011;54190;49.770;9.250;2022-12-18T06:13:35;34.87;;;19.43;;
67272;SDS011;54190;49.770;9.250;2022-12-18T06:16:04;32.07;;;18.43;;
67272;SDS011;54190;49.770;9.250;2022-12-18T06:18:31;29.57;;;18.43;;
67272;SDS011;54190;49.770;9.250;2022-12-18T06:20:57;32.20;;;18.00;;
67272;SDS011;54190;49.770;9.250;2022-12-18T06:23:23;32.07;;;18.70;;
67272;SDS011;54190;49.770;9.250;2022-12-18T06:25:49;31.67;;;16.93;;
67272;SDS011;54190;49.770;9.250;2022-12-18T06:28:15;33.73;;;19.60;;
67272;SDS011;54190;49.770;9.250;2022-12-18T06:30:44;28.53;;;17.33;;
67272;SDS011;54190;49.770;9.250;2022-12-18T06:33:11;27.70;;;16.80;;
67272;SDS011;54190;49.770;9.250;2022-12-18T06:35:37;35.07;;;18.80;;
67272;SDS011;54190;49.770;9.250;2022-12-18T06:38:03;33.43;;;18.40;;
67272;SDS011;54190;49.770;9.250;2022-12-18T06:40:29;33.93;;;19.03;;
67272;SDS011;54190;49.770;9.250;2022-12-18T06:42:54;33.07;;;18.30;;
67272;SDS011;54190;49.770;9.250;2022-12-18T06:45:20;35.50;;;19.40;;
67272;SDS011;54190;49.770;9.250;2022-12-18T06:47:46;38.27;;;20.00;;
67272;SDS011;54190;49.770;9.250;2022-12-18T06:50:12;30.43;;;19.27;;
67272;SDS011;54190;49.770;9.250;2022-12-18T06:52:38;33.63;;;18.27;;
67272;SDS011;54190;49.770;9.250;2022-12-18T06:55:06;35.00;;;19.90;;
67272;SDS011;54190;49.770;9.250;2022-12-18T06:57:34;32.43;;;18.60;;
67272;SDS011;54190;49.770;9.250;2022-12-18T06:59:59;33.97;;;18.50;;
67272;SDS011;54190;49.770;9.250;2022-12-18T07:02:25;33.10;;;18.27;;
67272;SDS011;54190;49.770;9.250;2022-12-18T07:04:51;35.03;;;19.30;;
67272;SDS011;54190;49.770;9.250;2022-12-18T07:07:16;29.73;;;17.37;;
67272;SDS011;54190;49.770;9.250;2022-12-18T07:09:42;34.40;;;18.63;;
67272;SDS011;54190;49.770;9.250;2022-12-18T07:12:08;31.20;;;18.30;;
67272;SDS011;54190;49.770;9.250;2022-12-18T07:14:34;31.57;;;19.10;;
67272;SDS011;54190;49.770;9.250;2022-12-18T07:16:59;39.90;;;20.27;;
67272;SDS011;54190;49.770;9.250;2022-12-18T07:19:25;32.93;;;17.40;;
67272;SDS011;54190;49.770;9.250;2022-12-18T07:21:51;35.77;;;19.27;;
67272;SDS011;54190;49.770;9.250;2022-12-18T07:24:17;32.03;;;18.87;;
67272;SDS011;54190;49.770;9.250;2022-12-18T07:26:45;33.70;;;20.97;;
67272;SDS011;54190;49.770;9.250;2022-12-18T07:29:11;36.87;;;19.97;;
67272;SDS011;54190;49.770;9.250;2022-12-18T07:31:36;43.73;;;20.37;;
67272;SDS011;54190;49.770;9.250;2022-12-18T07:34:02;30.40;;;18.50;;
67272;SDS011;54190;49.770;9.250;2022-12-18T07:36:28;34.17;;;18.43;;
67272;SDS011;54190;49.770;9.250;2022-12-18T07:38:53;35.97;;;19.80;;
67272;SDS011;54190;49.770;9.250;2022-12-18T07:41:19;31.70;;;18.93;;
67272;SDS011;54190;49.770;9.250;2022-12-18T07:43:46;34.77;;;18.70;;
67272;SDS011;54190;49.770;9.250;2022-12-18T07:46:12;34.60;;;19.80;;
67272;SDS011;54190;49.770;9.250;2022-12-18T07:48:42;34.00;;;20.40;;
67272;SDS011;54190;49.770;9.250;2022-12-18T07:51:08;33.30;;;19.57;;
67272;SDS011;54190;49.770;9.250;2022-12-18T07:53:37;36.63;;;20.10;;
67272;SDS011;54190;49.770;9.250;2022-12-18T07:56:04;33.83;;;20.23;;
67272;SDS011;54190;49.770;9.250;2022-12-18T07:58:31;33.30;;;19.40;;
67272;SDS011;54190;49.770;9.250;2022-12-18T08:01:07;36.20;;;19.60;;
67272;SDS011;54190;49.770;9.250;2022-12-18T08:03:34;40.30;;;21.33;;
67272;SDS011;54190;49.770;9.250;2022-12-18T08:06:01;47.80;;;25.93;;
67272;SDS011;54190;49.770;9.250;2022-12-18T08:08:28;36.50;;;20.33;;
67272;SDS011;54190;49.770;9.250;2022-12-18T08:10:55;33.90;;;19.40;;
67272;SDS011;54190;49.770;9.250;2022-12-18T08:13:21;34.03;;;19.30;;
67272;SDS011;54190;49.770;9.250;2022-12-18T08:16:00;32.90;;;18.87;;
67272;SDS011;54190;49.770;9.250;2022-12-18T08:18:28;37.20;;;20.27;;
67272;SDS011;54190;49.770;9.250;2022-12-18T08:20:54;35.10;;;20.20;;
67272;SDS011;54190;49.770;9.250;2022-12-18T08:23:20;35.30;;;20.03;;
67272;SDS011;54190;49.770;9.250;2022-12-18T08:25:46;36.77;;;21.53;;
67272;SDS011;54190;49.770;9.250;2022-12-18T08:28:12;34.30;;;18.73;;
67272;SDS011;54190;49.770;9.250;2022-12-18T08:30:37;35.57;;;21.03;;
67272;SDS011;54190;49.770;9.250;2022-12-18T08:33:03;37.80;;;20.57;;
67272;SDS011;54190;49.770;9.250;2022-12-18T08:35:29;51.10;;;28.00;;
67272;SDS011;54190;49.770;9.250;2022-12-18T08:37:54;90.87;;;41.27;;
67272;SDS011;54190;49.770;9.250;2022-12-18T08:40:20;44.97;;;21.87;;
67272;SDS011;54190;49.770;9.250;2022-12-18T08:42:46;34.40;;;20.53;;
67272;SDS011;54190;49.770;9.250;2022-12-18T08:45:30;46.90;;;22.30;;
67272;SDS011;54190;49.770;9.250;2022-12-18T08:47:58;38.87;;;19.80;;
67272;SDS011;54190;49.770;9.250;2022-12-18T08:50:24;33.10;;;18.97;;
67272;SDS011;54190;49.770;9.250;2022-12-18T08:52:49;40.47;;;21.70;;
67272;SDS011;54190;49.770;9.250;2022-12-18T08:55:15;56.60;;;26.17;;
67272;SDS011;54190;49.770;9.250;2022-12-18T08:57:41;60.57;;;28.83;;
67272;SDS011;54190;49.770;9.250;2022-12-18T09:00:09;42.20;;;19.90;;
67272;SDS011;54190;49.770;9.250;2022-12-18T09:02:35;36.77;;;19.80;;
67272;SDS011;54190;49.770;9.250;2022-12-18T09:05:00;48.20;;;21.83;;
67272;SDS011;54190;49.770;9.250;2022-12-18T09:07:26;46.20;;;22.07;;
67272;SDS011;54190;49.770;9.250;2022-12-18T09:09:52;58.90;;;28.63;;
67272;SDS011;54190;49.770;9.250;2022-12-18T09:12:17;78.83;;;34.87;;
67272;SDS011;54190;49.770;9.250;2022-12-18T09:14:43;165.17;;;61.37;;
67272;SDS011;54190;49.770;9.250;2022-12-18T09:17:09;46.57;;;22.40;;
67272;SDS011;54190;49.770;9.250;2022-12-18T09:19:34;49.33;;;24.30;;
67272;SDS011;54190;49.770;9.250;2022-12-18T09:22:00;42.20;;;20.60;;
67272;SDS011;54190;49.770;9.250;2022-12-18T09:24:25;57.73;;;28.70;;
67272;SDS011;54190;49.770;9.250;2022-12-18T09:26:54;68.77;;;30.50;;
67272;SDS011;54190;49.770;9.250;2022-12-18T09:29:20;41.67;;;21.60;;
67272;SDS011;54190;49.770;9.250;2022-12-18T09:31:46;33.07;;;18.20;;
67272;SDS011;54190;49.770;9.250;2022-12-18T09:34:12;49.53;;;22.43;;
67272;SDS011;54190;49.770;9.250;2022-12-18T09:36:38;41.83;;;18.83;;
67272;SDS011;54190;49.770;9.250;2022-12-18T09:39:04;44.70;;;23.23;;
67272;SDS011;54190;49.770;9.250;2022-12-18T09:47:28;43.23;;;20.30;;
67272;SDS011;54190;49.770;9.250;2022-12-18T09:50:04;44.83;;;21.07;;
67272;SDS011;54190;49.770;9.250;2022-12-18T09:52:53;42.73;;;20.20;;
67272;SDS011;54190;49.770;9.250;2022-12-18T09:55:24;43.27;;;20.97;;
67272;SDS011;54190;49.770;9.250;2022-12-18T09:57:55;40.47;;;19.33;;
67272;SDS011;54190;49.770;9.250;2022-12-18T10:00:42;39.07;;;19.87;;
67272;SDS011;54190;49.770;9.250;2022-12-18T10:03:09;38.47;;;19.30;;
67272;SDS011;54190;49.770;9.250;2022-12-18T10:08:33;47.43;;;21.70;;
67272;SDS011;54190;49.770;9.250;2022-12-18T10:14:15;41.30;;;19.57;;
67272;SDS011;54190;49.770;9.250;2022-12-18T10:23:04;38.00;;;19.70;;
67272;SDS011;54190;49.770;9.250;2022-12-18T10:28:25;37.50;;;19.33;;
67272;SDS011;54190;49.770;9.250;2022-12-18T10:30:54;40.47;;;20.00;;
67272;SDS011;54190;49.770;9.250;2022-12-18T10:33:21;39.80;;;19.50;;
67272;SDS011;54190;49.770;9.250;2022-12-18T10:35:52;38.80;;;18.90;;
67272;SDS011;54190;49.770;9.250;2022-12-18T10:40:57;41.07;;;18.60;;
67272;SDS011;54190;49.770;9.250;2022-12-18T10:43:26;35.93;;;17.90;;
67272;SDS011;54190;49.770;9.250;2022-12-18T10:51:29;41.37;;;20.07;;
67272;SDS011;54190;49.770;9.250;2022-12-18T10:54:04;36.57;;;18.30;;
67272;SDS011;54190;49.770;9.250;2022-12-18T10:56:40;41.43;;;18.77;;
67272;SDS011;54190;49.770;9.250;2022-12-18T10:59:08;33.33;;;17.77;;
67272;SDS011;54190;49.770;9.250;2022-12-18T11:01:46;39.30;;;18.03;;
67272;SDS011;54190;49.770;9.250;2022-12-18T11:04:26;38.17;;;18.13;;
67272;SDS011;54190;49.770;9.250;2022-12-18T11:06:58;38.70;;;18.50;;
67272;SDS011;54190;49.770;9.250;2022-12-18T11:11:53;39.57;;;18.87;;
67272;SDS011;54190;49.770;9.250;2022-12-18T11:14:29;36.23;;;17.10;;
67272;SDS011;54190;49.770;9.250;2022-12-18T11:16:59;34.13;;;17.80;;
67272;SDS011;54190;49.770;9.250;2022-12-18T11:21:51;34.30;;;16.57;;
67272;SDS011;54190;49.770;9.250;2022-12-18T11:24:19;38.90;;;18.40;;
67272;SDS011;54190;49.770;9.250;2022-12-18T11:26:56;35.60;;;17.83;;
67272;SDS011;54190;49.770;9.250;2022-12-18T11:29:39;34.73;;;16.13;;
67272;SDS011;54190;49.770;9.250;2022-12-18T11:34:39;34.83;;;17.80;;
67272;SDS011;54190;49.770;9.250;2022-12-18T11:37:09;43.17;;;19.50;;
67272;SDS011;54190;49.770;9.250;2022-12-18T11:39:58;34.40;;;16.90;;
67272;SDS011;54190;49.770;9.250;2022-12-18T11:42:49;43.17;;;18.47;;
67272;SDS011;54190;49.770;9.250;2022-12-18T11:45:30;33.93;;;17.37;;
67272;SDS011;54190;49.770;9.250;2022-12-18T11:48:17;37.43;;;16.80;;
67272;SDS011;54190;49.770;9.250;2022-12-18T11:50:56;37.27;;;17.07;;
67272;SDS011;54190;49.770;9.250;2022-12-18T11:53:24;34.90;;;16.10;;
67272;SDS011;54190;49.770;9.250;2022-12-18T11:58:55;37.47;;;17.27;;
67272;SDS011;54190;49.770;9.250;2022-12-18T12:09:55;32.27;;;16.80;;
67272;SDS011;54190;49.770;9.250;2022-12-18T12:15:32;39.13;;;18.37;;
67272;SDS011;54190;49.770;9.250;2022-12-18T12:18:03;35.57;;;17.70;;
67272;SDS011;54190;49.770;9.250;2022-12-18T12:26:26;38.53;;;17.10;;
67272;SDS011;54190;49.770;9.250;2022-12-18T12:31:27;32.53;;;16.63;;
67272;SDS011;54190;49.770;9.250;2022-12-18T12:39:40;40.80;;;16.70;;
67272;SDS011;54190;49.770;9.250;2022-12-18T12:42:26;34.37;;;15.73;;
67272;SDS011;54190;49.770;9.250;2022-12-18T12:45:23;35.80;;;16.33;;
67272;SDS011;54190;49.770;9.250;2022-12-18T12:47:55;36.30;;;18.40;;
67272;SDS011;54190;49.770;9.250;2022-12-18T12:50:23;43.50;;;19.50;;
67272;SDS011;54190;49.770;9.250;2022-12-18T12:52:53;38.57;;;17.23;;
67272;SDS011;54190;49.770;9.250;2022-12-18T12:55:25;32.60;;;16.00;;
67272;SDS011;54190;49.770;9.250;2022-12-18T13:00:30;27.37;;;15.40;;
67272;SDS011;54190;49.770;9.250;2022-12-18T13:03:15;33.60;;;16.33;;
67272;SDS011;54190;49.770;9.250;2022-12-18T13:09:10;33.40;;;16.90;;
67272;SDS011;54190;49.770;9.250;2022-12-18T13:11:37;28.53;;;14.87;;
67272;SDS011;54190;49.770;9.250;2022-12-18T13:14:31;30.87;;;15.43;;
67272;SDS011;54190;49.770;9.250;2022-12-18T13:19:47;32.27;;;16.50;;
67272;SDS011;54190;49.770;9.250;2022-12-18T13:22:37;27.70;;;14.07;;
67272;SDS011;54190;49.770;9.250;2022-12-18T13:25:44;32.83;;;17.03;;
67272;SDS011;54190;49.770;9.250;2022-12-18T13:28:07;29.80;;;14.87;;
67272;SDS011;54190;49.770;9.250;2022-12-18T13:35:39;33.17;;;16.90;;
67272;SDS011;54190;49.770;9.250;2022-12-18T13:41:01;34.10;;;15.60;;
67272;SDS011;54190;49.770;9.250;2022-12-18T13:43:28;29.93;;;14.60;;
67272;SDS011;54190;49.770;9.250;2022-12-18T13:45:59;31.40;;;14.20;;
67272;SDS011;54190;49.770;9.250;2022-12-18T13:48:26;31.03;;;15.77;;
67272;SDS011;54190;49.770;9.250;2022-12-18T13:53:39;28.73;;;14.53;;
67272;SDS011;54190;49.770;9.250;2022-12-18T13:56:09;31.20;;;15.83;;
67272;SDS011;54190;49.770;9.250;2022-12-18T13:58:46;32.80;;;14.10;;
67272;SDS011;54190;49.770;9.250;2022-12-18T14:01:27;26.73;;;13.30;;
67272;SDS011;54190;49.770;9.250;2022-12-18T14:04:08;31.90;;;15.33;;
67272;SDS011;54190;49.770;9.250;2022-12-18T14:06:35;33.20;;;15.00;;
67272;SDS011;54190;49.770;9.250;2022-12-18T14:09:01;32.27;;;15.67;;
67272;SDS011;54190;49.770;9.250;2022-12-18T14:11:27;27.03;;;13.90;;
67272;SDS011;54190;49.770;9.250;2022-12-18T14:13:54;29.50;;;14.90;;
67272;SDS011;54190;49.770;9.250;2022-12-18T14:16:20;28.50;;;13.80;;
67272;SDS011;54190;49.770;9.250;2022-12-18T14:18:56;30.80;;;15.17;;
67272;SDS011;54190;49.770;9.250;2022-12-18T14:21:25;48.80;;;21.90;;
67272;SDS011;54190;49.770;9.250;2022-12-18T14:26:42;29.47;;;13.90;;
67272;SDS011;54190;49.770;9.250;2022-12-18T14:32:06;30.53;;;14.40;;
67272;SDS011;54190;49.770;9.250;2022-12-18T14:34:34;26.93;;;14.73;;
67272;SDS011;54190;49.770;9.250;2022-12-18T14:37:00;28.27;;;13.97;;
67272;SDS011;54190;49.770;9.250;2022-12-18T14:39:26;27.70;;;15.33;;
67272;SDS011;54190;49.770;9.250;2022-12-18T14:41:51;27.33;;;13.13;;
67272;SDS011;54190;49.770;9.250;2022-12-18T14:44:18;26.67;;;13.37;;
67272;SDS011;54190;49.770;9.250;2022-12-18T14:46:44;26.83;;;14.30;;
67272;SDS011;54190;49.770;9.250;2022-12-18T14:49:22;28.80;;;15.07;;
67272;SDS011;54190;49.770;9.250;2022-12-18T14:51:55;26.67;;;14.00;;
67272;SDS011;54190;49.770;9.250;2022-12-18T14:54:23;29.70;;;13.60;;
67272;SDS011;54190;49.770;9.250;2022-12-18T14:57:00;25.80;;;14.00;;
67272;SDS011;54190;49.770;9.250;2022-12-18T14:59:28;28.80;;;13.90;;
67272;SDS011;54190;49.770;9.250;2022-12-18T15:04:29;30.10;;;15.17;;
67272;SDS011;54190;49.770;9.250;2022-12-18T15:12:37;31.20;;;14.37;;
67272;SDS011;54190;49.770;9.250;2022-12-18T15:17:58;30.93;;;14.60;;
67272;SDS011;54190;49.770;9.250;2022-12-18T15:20:32;30.13;;;14.90;;
67272;SDS011;54190;49.770;9.250;2022-12-18T15:26:01;25.80;;;13.87;;
67272;SDS011;54190;49.770;9.250;2022-12-18T15:33:42;27.20;;;14.10;;
67272;SDS011;54190;49.770;9.250;2022-12-18T15:36:12;28.10;;;13.77;;
67272;SDS011;54190;49.770;9.250;2022-12-18T15:38:39;28.90;;;14.10;;
67272;SDS011;54190;49.770;9.250;2022-12-18T15:41:11;28.80;;;14.60;;
67272;SDS011;54190;49.770;9.250;2022-12-18T15:43:39;31.47;;;15.80;;
67272;SDS011;54190;49.770;9.250;2022-12-18T15:46:06;28.43;;;13.47;;
67272;SDS011;54190;49.770;9.250;2022-12-18T15:48:39;29.37;;;13.70;;
67272;SDS011;54190;49.770;9.250;2022-12-18T15:54:02;27.07;;;13.20;;
67272;SDS011;54190;49.770;9.250;2022-12-18T15:56:29;29.87;;;14.47;;
67272;SDS011;54190;49.770;9.250;2022-12-18T15:59:14;25.27;;;13.30;;
67272;SDS011;54190;49.770;9.250;2022-12-18T16:01:42;31.17;;;14.03;;
67272;SDS011;54190;49.770;9.250;2022-12-18T16:04:11;29.63;;;14.87;;
67272;SDS011;54190;49.770;9.250;2022-12-18T16:06:38;30.07;;;14.90;;
67272;SDS011;54190;49.770;9.250;2022-12-18T16:09:04;30.10;;;15.57;;
67272;SDS011;54190;49.770;9.250;2022-12-18T16:11:30;29.23;;;14.27;;
67272;SDS011;54190;49.770;9.250;2022-12-18T16:14:04;31.57;;;15.17;;
67272;SDS011;54190;49.770;9.250;2022-12-18T16:16:30;26.23;;;13.50;;
67272;SDS011;54190;49.770;9.250;2022-12-18T16:18:56;25.20;;;13.30;;
67272;SDS011;54190;49.770;9.250;2022-12-18T16:21:22;26.20;;;13.30;;
67272;SDS011;54190;49.770;9.250;2022-12-18T16:23:47;28.00;;;14.00;;
67272;SDS011;54190;49.770;9.250;2022-12-18T16:26:13;30.00;;;15.17;;
67272;SDS011;54190;49.770;9.250;2022-12-18T16:28:39;26.13;;;13.73;;
67272;SDS011;54190;49.770;9.250;2022-12-18T16:31:04;25.20;;;12.97;;
67272;SDS011;54190;49.770;9.250;2022-12-18T16:33:30;29.80;;;14.90;;
67272;SDS011;54190;49.770;9.250;2022-12-18T16:35:56;29.37;;;15.00;;
67272;SDS011;54190;49.770;9.250;2022-12-18T16:38:21;29.33;;;14.27;;
67272;SDS011;54190;49.770;9.250;2022-12-18T16:40:47;30.87;;;16.10;;
67272;SDS011;54190;49.770;9.250;2022-12-18T16:43:31;29.53;;;15.20;;
67272;SDS011;54190;49.770;9.250;2022-12-18T16:45:58;30.00;;;14.57;;
67272;SDS011;54190;49.770;9.250;2022-12-18T16:48:24;25.33;;;13.03;;
67272;SDS011;54190;49.770;9.250;2022-12-18T16:50:50;29.07;;;13.50;;
67272;SDS011;54190;49.770;9.250;2022-12-18T16:53:24;29.77;;;15.20;;
67272;SDS011;54190;49.770;9.250;2022-12-18T16:55:53;27.67;;;13.83;;